Nashville, Tennessee
Traffic Map
Current Weather Conditions
Nashville, Tennessee
Overcast Haze
Overcast
48°
Feels Like: 48°
Wind Chill: 48° Ceiling: 700
Heat Index: 48° Visibility: 5mi
Dew Point: 46° Wind: 3mph
Humidity: 93% Direction: 180° (S)
Pressure: 30.15in Gusts: 0mph
Raw Report DataKBNA 181153Z 18003KT 5SM BR OVC007 09/08 A3015 RMK AO2 SLP209 70013 T00890078 10089 20083 55001 $
Traffic Incident Summary
Active as of:
Severity:
Category:
InformationThere was an issue retrieving the traffic information for this location. Please try a different location or try again shortly.
Advertisements